Carrboro, North Carolina
Current Conditions -  °F | °C
As of 10:56 PM on Saturday 25 Oct 2014 (Local Time) from KIGX Reporting Station
Clear Clear  
Wind Chill: 55°   Ceiling: Unl
Heat Index: 55°   Visibility: 10mi
Dew Point: 42°   Wind: 3mph
Humidity: 62%   Direction: 270°W
Pressure: 29.88"   Gusts: NA
Location:  35.91°N, 79.08°W
Report Text: KIGX 260256Z AUTO 27003KT 10SM CLR 13/06 A2988 RMK AO2 SLP115 T01280056 58005
Loading
Personal Weather Stations






























Interactive Weather Map New forecast layout! Learn more

10-Day Weather Forecast

Advertisements
Track Severe Weather on mobile